Time;durP1;ratioP1;P1;durP2;ratioP2;P2;SDS_P1;SDS_P2;PMS_P1;PMS_P2;Temp;Humidity;BMP_temperature;BMP_pressure;BME280_temperature;BME280_humidity;BME280_pressure;Samples;Min_cycle;Max_cycle;Signal;HPM_P1;HPM_P2
2023/10/20 00:00:06;;;;;;;4.22;0.63;;;;;;;17.43;78.20;96687.50;4970780;28;20031;-79
2023/10/20 00:02:33;;;;;;;3.37;0.57;;;;;;;17.47;77.81;96712.84;4970548;28;20042;-79
2023/10/20 00:04:58;;;;;;;4.63;0.80;;;;;;;17.48;77.81;96762.44;4953145;28;20022;-80
2023/10/20 00:07:23;;;;;;;4.83;0.60;;;;;;;17.47;77.56;96678.25;4970822;28;20125;-80
2023/10/20 00:09:49;;;;;;;5.57;0.80;;;;;;;17.44;77.71;96714.94;4970911;28;20098;-80
2023/10/20 00:12:15;;;;;;;5.65;0.70;;;;;;;17.47;77.62;96747.41;4970763;28;20514;-81
2023/10/20 00:14:41;;;;;;;5.47;0.73;;;;;;;17.49;77.62;96724.22;4953366;28;20058;-80
2023/10/20 00:17:06;;;;;;;5.57;0.80;;;;;;;17.51;77.69;96726.72;4970482;28;20100;-79
2023/10/20 00:19:32;;;;;;;3.60;0.83;;;;;;;17.48;77.61;96733.16;4970259;28;20078;-78
2023/10/20 00:21:57;;;;;;;6.10;0.70;;;;;;;17.50;77.48;96743.66;4970640;28;20023;-78
2023/10/20 00:24:22;;;;;;;5.50;0.73;;;;;;;17.48;77.67;96713.69;4970665;28;20262;-79
2023/10/20 00:26:49;;;;;;;3.97;0.80;;;;;;;17.48;77.69;96676.44;4970304;28;20033;-79
2023/10/20 00:29:14;;;;;;;3.67;0.77;;;;;;;17.49;77.51;96705.59;4970698;28;20502;-81
2023/10/20 00:31:39;;;;;;;3.17;0.70;;;;;;;17.50;77.39;96701.94;4970649;28;20106;-79
2023/10/20 00:34:05;;;;;;;5.20;0.80;;;;;;;17.49;77.33;96705.59;4970129;28;20026;-79
2023/10/20 00:36:30;;;;;;;4.17;0.60;;;;;;;17.48;77.36;96709.22;4970465;28;20031;-78
2023/10/20 00:38:55;;;;;;;4.22;0.70;;;;;;;17.46;77.61;96695.19;4970422;28;20078;-78
2023/10/20 00:41:21;;;;;;;5.80;0.90;;;;;;;17.49;77.70;96680.78;4952875;28;20487;-78
2023/10/20 00:43:46;;;;;;;4.27;0.80;;;;;;;17.53;77.48;96684.84;4955069;28;20355;-80
2023/10/20 00:46:13;;;;;;;4.75;0.80;;;;;;;17.52;77.56;96653.91;4968044;28;20043;-78
2023/10/20 00:48:39;;;;;;;6.47;0.60;;;;;;;17.52;77.30;96658.41;4970030;28;20089;-78
2023/10/20 00:51:06;;;;;;;5.30;0.70;;;;;;;17.49;77.37;96663.03;4970271;28;20499;-79
2023/10/20 00:53:34;;;;;;;4.20;0.82;;;;;;;17.52;77.36;96688.50;4970361;28;20030;-80
2023/10/20 00:56:01;;;;;;;4.07;0.73;;;;;;;17.54;77.23;96704.31;4970280;28;20106;-80
2023/10/20 00:58:27;;;;;;;3.72;0.60;;;;;;;17.52;77.07;96672.53;4970064;28;20038;-80
2023/10/20 01:00:53;;;;;;;5.05;1.45;;;;;;;17.48;77.17;96669.31;4970279;28;20391;-78
2023/10/20 01:03:19;;;;;;;4.50;0.97;;;;;;;17.41;77.27;96673.50;4969685;28;20098;-80
2023/10/20 01:05:45;;;;;;;6.63;1.23;;;;;;;17.35;77.37;96663.41;4970122;28;20126;-78
2023/10/20 01:08:10;;;;;;;3.63;1.00;;;;;;;17.32;77.57;96639.78;4952998;28;20126;-79
2023/10/20 01:10:35;;;;;;;5.13;0.90;;;;;;;17.33;77.72;96630.81;4970184;28;20039;-78
2023/10/20 01:13:01;;;;;;;3.93;1.03;;;;;;;17.35;77.52;96626.19;4970286;28;20058;-78
2023/10/20 01:15:27;;;;;;;4.77;1.10;;;;;;;17.39;77.43;96640.06;4969841;28;20454;-79
2023/10/20 01:17:52;;;;;;;5.35;1.17;;;;;;;17.41;77.21;96654.06;4969779;28;20077;-79
2023/10/20 01:20:17;;;;;;;4.80;0.90;;;;;;;17.42;77.41;96687.66;4969897;28;20105;-78
2023/10/20 01:22:44;;;;;;;5.57;1.00;;;;;;;17.42;77.26;96699.13;4970042;28;20038;-78
2023/10/20 01:25:11;;;;;;;4.13;1.00;;;;;;;17.36;77.20;96711.16;4970242;28;20106;-77
2023/10/20 01:27:36;;;;;;;4.32;1.00;;;;;;;17.29;77.46;96703.88;4970056;28;20046;-78
2023/10/20 01:30:03;;;;;;;4.70;0.90;;;;;;;17.22;77.79;96715.03;4971288;28;20394;-77
2023/10/20 01:32:28;;;;;;;4.88;0.90;;;;;;;17.15;77.89;96699.78;4955869;28;20027;-78
2023/10/20 01:34:53;;;;;;;3.00;0.60;;;;;;;17.11;77.84;96727.59;4973384;28;20031;-79
2023/10/20 01:37:19;;;;;;;2.58;0.50;;;;;;;17.09;77.62;96730.41;4973491;28;20031;-78
2023/10/20 01:39:44;;;;;;;3.90;0.50;;;;;;;17.04;77.29;96737.94;4973381;28;20062;-79
2023/10/20 01:42:10;;;;;;;5.67;0.53;;;;;;;16.99;77.17;96742.78;4972938;28;20050;-78
2023/10/20 01:44:36;;;;;;;3.90;0.60;;;;;;;16.93;76.98;96742.31;4964438;28;20035;-78
2023/10/20 01:47:01;;;;;;;3.00;0.50;;;;;;;16.91;76.87;96754.91;4966485;28;20031;-78
2023/10/20 01:49:26;;;;;;;2.80;0.40;;;;;;;16.87;76.82;96753.50;4972919;28;20099;-79
2023/10/20 01:51:52;;;;;;;2.75;0.30;;;;;;;16.89;76.71;96761.34;4973151;28;20050;-79
2023/10/20 01:54:17;;;;;;;2.70;0.30;;;;;;;16.88;76.67;96760.50;4973013;28;20050;-79
2023/10/20 01:56:43;;;;;;;4.03;0.40;;;;;;;16.87;76.38;96756.16;4972969;28;20348;-78
2023/10/20 01:59:09;;;;;;;4.03;0.40;;;;;;;16.89;76.26;96740.09;4972780;28;20030;-78
2023/10/20 02:01:34;;;;;;;5.03;0.40;;;;;;;16.87;76.20;96742.00;4973056;28;20042;-78
2023/10/20 02:04:00;;;;;;;3.07;0.40;;;;;;;16.89;76.60;96769.31;4972713;28;20030;-79
2023/10/20 02:06:26;;;;;;;2.73;0.30;;;;;;;16.89;76.22;96778.13;4972812;28;20674;-78
2023/10/20 02:08:54;;;;;;;2.30;0.40;;;;;;;16.88;76.16;96794.19;4972850;28;20039;-79
2023/10/20 02:11:19;;;;;;;8.93;0.40;;;;;;;16.81;75.64;96785.91;4972701;28;20018;-78
2023/10/20 02:13:45;;;;;;;3.53;0.40;;;;;;;16.81;75.97;96774.44;4972717;28;20026;-79
2023/10/20 02:16:10;;;;;;;2.80;0.20;;;;;;;16.81;75.82;96761.16;4972559;28;20047;-78
2023/10/20 02:18:37;;;;;;;2.07;0.30;;;;;;;16.78;75.74;96759.63;4972315;28;20278;-79
2023/10/20 02:21:03;;;;;;;3.95;0.30;;;;;;;16.78;75.77;96788.84;4971464;28;20034;-79
2023/10/20 02:23:35;;;;;;;2.80;0.40;;;;;;;16.78;75.46;96783.53;4972618;28;20019;-78
2023/10/20 02:26:06;;;;;;;4.10;0.30;;;;;;;16.78;75.40;96762.28;4972224;28;20034;-78
2023/10/20 02:28:35;;;;;;;2.57;0.40;;;;;;;16.81;75.60;96769.97;4972399;28;20031;-79
2023/10/20 02:31:09;;;;;;;2.72;0.30;;;;;;;16.84;75.40;96775.03;4972359;28;20077;-78
2023/10/20 02:33:35;;;;;;;4.25;0.40;;;;;;;16.82;75.45;96782.28;4972182;28;20062;-79
2023/10/20 02:36:01;;;;;;;4.30;0.37;;;;;;;16.74;75.53;96779.44;4972273;28;20027;-78
2023/10/20 02:38:26;;;;;;;3.63;0.40;;;;;;;16.69;75.06;96794.91;4972092;28;20025;-79
2023/10/20 02:40:53;;;;;;;3.83;0.40;;;;;;;16.64;75.61;96811.28;4971985;28;20130;-79
2023/10/20 02:43:18;;;;;;;2.83;0.30;;;;;;;16.64;75.82;96808.63;4972164;28;20522;-78
2023/10/20 02:46:02;;;;;;;2.70;0.30;;;;;;;16.61;76.02;96820.34;4989881;28;20053;-78
2023/10/20 02:48:28;;;;;;;2.42;0.30;;;;;;;16.62;76.10;96808.72;4991068;28;20116;-78
2023/10/20 02:50:54;;;;;;;2.58;0.40;;;;;;;16.68;76.07;96802.06;4973827;28;20483;-78
2023/10/20 02:53:20;;;;;;;3.03;0.30;;;;;;;16.70;76.00;96793.94;4990380;28;20080;-78
2023/10/20 02:55:46;;;;;;;2.95;0.30;;;;;;;16.70;76.12;96784.19;4972087;28;20118;-79
2023/10/20 02:58:12;;;;;;;1.92;0.30;;;;;;;16.73;76.05;96761.81;4972396;28;20098;-79
2023/10/20 03:00:45;;;;;;;2.80;0.40;;;;;;;16.73;75.72;96796.34;4971940;28;20116;-78
2023/10/20 03:03:13;;;;;;;4.40;0.40;;;;;;;16.71;76.04;96785.84;4971566;28;20509;-79
2023/10/20 03:05:45;;;;;;;2.63;0.43;;;;;;;16.69;76.29;96792.25;4971583;28;20499;-77
2023/10/20 03:08:11;;;;;;;4.13;0.30;;;;;;;16.68;76.32;96791.44;4971577;28;20045;-78
2023/10/20 03:10:36;;;;;;;2.37;0.40;;;;;;;16.70;76.09;96794.81;4971504;28;20031;-79
2023/10/20 03:13:04;;;;;;;2.17;0.40;;;;;;;16.73;76.00;96802.50;4971918;28;20498;-78
2023/10/20 03:15:30;;;;;;;3.95;0.40;;;;;;;16.73;76.03;96804.31;4971583;28;20046;-79
2023/10/20 03:17:56;;;;;;;3.05;0.65;;;;;;;16.72;75.91;96805.28;4971455;28;20106;-78
2023/10/20 03:20:28;;;;;;;3.83;0.50;;;;;;;16.72;76.04;96813.25;4971485;28;20114;-78
2023/10/20 03:22:56;;;;;;;3.28;0.40;;;;;;;16.71;76.07;96811.56;4971596;28;20458;-78
2023/10/20 03:25:21;;;;;;;4.30;0.40;;;;;;;16.71;76.01;96806.25;4971264;28;20030;-78
2023/10/20 03:27:47;;;;;;;6.10;0.45;;;;;;;16.70;76.09;96816.06;4971490;28;20509;-78
2023/10/20 03:30:15;;;;;;;2.88;0.30;;;;;;;16.71;76.09;96815.09;4971071;28;20031;-78
2023/10/20 03:32:40;;;;;;;3.35;0.40;;;;;;;16.70;75.97;96820.50;4971126;28;20030;-78
2023/10/20 03:35:07;;;;;;;1.73;0.30;;;;;;;16.71;76.02;96816.88;4971096;28;20070;-79
2023/10/20 03:37:32;;;;;;;3.13;0.30;;;;;;;16.72;75.95;96818.56;4971297;28;20031;-78
2023/10/20 03:39:58;;;;;;;2.92;0.30;;;;;;;16.72;75.64;96818.56;4970965;28;20092;-78
2023/10/20 03:42:23;;;;;;;3.10;0.20;;;;;;;16.71;76.06;96817.75;4971239;28;20119;-79
2023/10/20 03:44:48;;;;;;;2.73;0.50;;;;;;;16.69;75.77;96802.91;4964066;28;20030;-78
2023/10/20 03:47:15;;;;;;;1.63;0.30;;;;;;;16.68;75.96;96806.53;4990048;28;20038;-78
2023/10/20 03:49:41;;;;;;;1.95;0.30;;;;;;;16.67;75.83;96799.53;4990352;28;20681;-78
2023/10/20 03:52:11;;;;;;;2.97;0.40;;;;;;;16.62;75.83;96794.59;4990263;28;20034;-79
2023/10/20 03:54:37;;;;;;;2.90;0.35;;;;;;;16.59;75.75;96798.38;4979138;28;20054;-78
2023/10/20 03:57:03;;;;;;;3.20;0.40;;;;;;;16.56;75.85;96792.47;4971044;28;20058;-78
2023/10/20 03:59:30;;;;;;;3.63;0.43;;;;;;;16.54;76.06;96794.41;4970796;28;20023;-80
2023/10/20 04:01:55;;;;;;;2.53;0.40;;;;;;;16.51;76.00;96795.50;4970728;28;20035;-80
2023/10/20 04:04:21;;;;;;;3.37;0.60;;;;;;;16.48;75.99;96782.47;4970028;28;20523;-79
2023/10/20 04:06:46;;;;;;;4.17;0.60;;;;;;;16.45;76.01;96791.56;4970518;28;20103;-79
2023/10/20 04:09:11;;;;;;;3.50;0.40;;;;;;;16.41;75.97;96794.59;4953647;28;20034;-78
2023/10/20 04:11:38;;;;;;;4.15;0.30;;;;;;;16.35;75.86;96804.78;4970972;28;20390;-77
2023/10/20 04:14:06;;;;;;;2.83;0.40;;;;;;;16.28;76.28;96805.41;4970783;28;20403;-78
2023/10/20 04:16:42;;;;;;;5.65;0.40;;;;;;;16.25;75.96;96806.50;4970844;28;20027;-78
2023/10/20 04:19:12;;;;;;;2.22;0.40;;;;;;;16.19;76.06;96802.56;4970222;28;20467;-78
2023/10/20 04:21:39;;;;;;;3.72;0.50;;;;;;;16.13;76.17;96796.91;4970637;28;20030;-78
2023/10/20 04:24:09;;;;;;;3.80;0.60;;;;;;;16.10;76.09;96803.31;4970517;28;20023;-78
2023/10/20 04:26:36;;;;;;;3.73;0.60;;;;;;;16.09;76.24;96801.63;4970298;28;20030;-79
2023/10/20 04:51:12;;;;;;;2.72;0.40;;;;;;;15.72;75.51;96797.50;4929323;29;20043;-78
2023/10/20 04:54:07;;;;;;;3.08;0.43;;;;;;;15.69;76.17;96811.00;4985978;28;20034;-77
2023/10/20 04:56:37;;;;;;;3.33;0.45;;;;;;;15.65;76.34;96825.47;4970336;28;20105;-79
2023/10/20 04:59:09;;;;;;;2.23;0.40;;;;;;;15.62;75.87;96823.91;4969931;28;20026;-78
2023/10/20 05:01:41;;;;;;;3.97;0.52;;;;;;;15.59;75.81;96825.97;4970249;28;20396;-78
2023/10/20 05:04:23;;;;;;;6.03;0.80;;;;;;;15.50;76.03;96828.38;4971338;28;20487;-78
2023/10/20 05:06:58;;;;;;;3.60;0.77;;;;;;;15.45;76.06;96825.25;4974042;28;20055;-78
2023/10/20 05:09:25;;;;;;;3.10;0.60;;;;;;;15.43;75.95;96829.84;4974134;28;20384;-78
2023/10/20 05:11:52;;;;;;;4.07;0.80;;;;;;;15.41;76.05;96829.13;4974378;28;20027;-78
2023/10/20 05:14:18;;;;;;;4.90;0.73;;;;;;;15.38;76.11;96826.72;4973863;28;20030;-79
2023/10/20 05:16:43;;;;;;;3.55;0.63;;;;;;;15.37;75.92;96835.63;4973903;28;20677;-78
2023/10/20 05:19:10;;;;;;;2.97;0.73;;;;;;;15.33;75.95;96839.50;4973356;28;20031;-78
2023/10/20 05:21:38;;;;;;;5.75;0.60;;;;;;;15.32;76.07;96846.59;4956284;28;20085;-78
2023/10/20 05:24:04;;;;;;;3.85;0.57;;;;;;;15.33;76.00;96842.16;4973877;28;20031;-77
2023/10/20 05:26:31;;;;;;;4.03;0.70;;;;;;;15.30;76.03;96834.41;4973352;28;20062;-79
2023/10/20 05:28:56;;;;;;;8.98;1.60;;;;;;;15.29;75.87;96828.28;4973759;28;20125;-78
2023/10/20 05:31:24;;;;;;;4.23;0.60;;;;;;;15.27;75.95;96827.56;4973695;28;20073;-77
2023/10/20 05:33:50;;;;;;;4.75;0.80;;;;;;;15.26;75.90;96841.78;4973303;28;20399;-78
2023/10/20 05:36:15;;;;;;;5.27;0.73;;;;;;;15.23;76.03;96836.72;4966658;28;20042;-78
2023/10/20 05:38:41;;;;;;;4.35;0.73;;;;;;;15.20;75.88;96840.44;4973474;28;20038;-78
2023/10/20 05:41:06;;;;;;;2.90;0.70;;;;;;;15.16;75.96;96844.31;4973728;28;20039;-77
2023/10/20 05:43:31;;;;;;;4.53;0.50;;;;;;;15.13;75.98;96839.25;4973024;28;20031;-77
2023/10/20 05:45:57;;;;;;;2.73;0.60;;;;;;;15.09;76.14;96835.16;4974396;28;20034;-78
2023/10/20 05:48:22;;;;;;;4.00;0.80;;;;;;;15.07;76.08;96837.06;4955307;28;20633;-78
2023/10/20 05:50:54;;;;;;;5.00;1.00;;;;;;;15.02;76.01;96849.81;4973208;28;20376;-77
2023/10/20 05:53:20;;;;;;;3.20;0.77;;;;;;;14.98;76.35;96853.69;4973033;28;20027;-77
2023/10/20 05:55:45;;;;;;;3.73;0.90;;;;;;;14.95;76.51;96852.13;4973282;28;20057;-77
2023/10/20 05:58:10;;;;;;;4.18;1.00;;;;;;;14.92;76.48;96845.25;4972626;28;20507;-77
2023/10/20 06:00:36;;;;;;;4.23;1.10;;;;;;;14.91;76.35;96832.97;4962263;28;20030;-77
2023/10/20 06:03:03;;;;;;;6.43;1.25;;;;;;;14.88;76.77;96849.09;4958173;28;20091;-78
2023/10/20 06:05:28;;;;;;;4.30;1.00;;;;;;;14.90;76.39;96871.03;4972923;28;20118;-77
2023/10/20 06:07:55;;;;;;;5.90;1.00;;;;;;;14.92;76.57;96874.41;4973005;28;20042;-78
2023/10/20 06:10:23;;;;;;;6.32;1.42;;;;;;;14.90;76.35;96884.28;4973016;28;20037;-78
2023/10/20 06:12:50;;;;;;;4.55;1.73;;;;;;;14.77;76.91;96878.19;4972786;28;20031;-79
2023/10/20 06:15:15;;;;;;;4.37;1.10;;;;;;;14.71;77.00;96876.88;4972011;28;20042;-78
2023/10/20 06:17:41;;;;;;;4.35;1.00;;;;;;;14.66;77.48;96875.50;4972530;28;20027;-78
2023/10/20 06:20:09;;;;;;;7.17;1.33;;;;;;;14.60;77.47;96877.66;4972864;28;20560;-77
2023/10/20 06:22:34;;;;;;;3.60;1.00;;;;;;;14.60;77.61;96882.09;4964614;28;20037;-79
2023/10/20 06:25:00;;;;;;;5.60;1.00;;;;;;;14.55;77.78;96898.31;4964995;28;20031;-79
2023/10/20 06:27:25;;;;;;;4.03;1.20;;;;;;;14.46;78.44;96896.38;4944070;28;20027;-79
2023/10/20 06:30:07;;;;;;;5.95;1.13;;;;;;;14.47;78.02;96904.22;4960516;28;20491;-79
2023/10/20 06:32:41;;;;;;;3.75;1.00;;;;;;;14.43;78.16;96902.72;4952993;29;20038;-79
2023/10/20 06:35:09;;;;;;;5.90;1.00;;;;;;;14.43;78.51;96896.59;4953299;29;20542;-80
2023/10/20 06:37:37;;;;;;;3.85;1.10;;;;;;;14.43;78.33;96892.13;4958332;28;20118;-81
2023/10/20 06:40:03;;;;;;;5.07;1.17;;;;;;;14.49;78.17;96896.13;4953053;29;20027;-78
2023/10/20 06:42:29;;;;;;;4.95;1.30;;;;;;;14.49;78.00;96889.06;4935792;29;20035;-80
2023/10/20 06:44:55;;;;;;;4.80;1.00;;;;;;;14.55;77.97;96884.25;4974732;28;20505;-80
2023/10/20 06:47:21;;;;;;;5.20;1.20;;;;;;;14.57;77.89;96892.94;4989864;28;20018;-80
2023/10/20 06:49:47;;;;;;;3.90;1.10;;;;;;;14.57;77.99;96903.50;4990664;28;20368;-80
2023/10/20 06:52:17;;;;;;;6.43;1.23;;;;;;;14.61;77.80;96904.97;4989516;28;20017;-80
2023/10/20 06:54:44;;;;;;;4.22;1.23;;;;;;;14.62;77.55;96912.81;4978205;28;20023;-80
2023/10/20 06:57:09;;;;;;;4.57;1.35;;;;;;;14.63;77.72;96909.19;4968653;28;20076;-80
2023/10/20 06:59:35;;;;;;;5.23;1.40;;;;;;;14.61;77.79;96918.22;4947232;28;20502;-79
2023/10/20 07:02:01;;;;;;;4.93;1.30;;;;;;;14.60;77.93;96917.38;4971157;28;20034;-79
2023/10/20 07:04:27;;;;;;;6.30;1.30;;;;;;;14.54;78.47;96931.06;4971022;28;20103;-80
2023/10/20 07:06:53;;;;;;;4.50;1.30;;;;;;;14.54;78.25;96924.94;4969587;28;20043;-79
2023/10/20 07:09:18;;;;;;;6.07;1.57;;;;;;;14.50;78.82;96925.16;4968937;28;20046;-79
2023/10/20 07:11:44;;;;;;;4.55;1.40;;;;;;;14.52;78.42;96922.38;4969077;28;20394;-80
2023/10/20 07:14:13;;;;;;;4.80;1.23;;;;;;;14.57;78.41;96928.16;4968989;28;20034;-79
2023/10/20 07:16:39;;;;;;;4.00;1.15;;;;;;;14.59;78.54;96926.28;4968940;28;20031;-77
2023/10/20 07:19:04;;;;;;;6.37;1.57;;;;;;;14.62;78.48;96928.69;4968815;28;20045;-80
2023/10/20 07:21:30;;;;;;;5.63;1.40;;;;;;;14.69;78.31;96928.25;4964063;28;20031;-80
2023/10/20 07:23:56;;;;;;;7.55;1.50;;;;;;;14.73;78.80;96935.03;4960063;28;20254;-80
2023/10/20 07:26:25;;;;;;;6.43;1.47;;;;;;;14.83;78.43;96945.78;4970631;28;20026;-80
2023/10/20 07:28:50;;;;;;;4.55;1.10;;;;;;;14.98;78.46;96943.75;4959642;28;20210;-80
2023/10/20 07:31:18;;;;;;;5.60;1.47;;;;;;;15.21;77.90;96955.28;4951691;28;20563;-79
2023/10/20 07:33:43;;;;;;;4.32;1.20;;;;;;;15.40;77.69;96959.16;4957615;28;20039;-79
2023/10/20 07:36:10;;;;;;;5.72;1.40;;;;;;;15.57;77.69;96964.00;4971096;28;20181;-79
2023/10/20 07:38:36;;;;;;;4.83;1.10;;;;;;;15.76;77.29;96965.22;4970421;28;20026;-79
2023/10/20 07:41:09;;;;;;;8.68;1.65;;;;;;;15.99;77.03;96965.25;4971037;28;20030;-79
2023/10/20 07:43:35;;;;;;;4.78;1.20;;;;;;;16.24;76.34;96968.59;4964040;28;20049;-79
2023/10/20 07:46:00;;;;;;;8.73;1.57;;;;;;;16.38;76.00;96975.44;4951624;28;20372;-80
2023/10/20 07:48:26;;;;;;;5.43;1.73;;;;;;;16.40;76.03;96974.34;4958225;28;20026;-80
2023/10/20 07:50:52;;;;;;;7.57;1.63;;;;;;;16.50;75.77;96969.97;4970889;28;20062;-80
2023/10/20 07:53:18;;;;;;;4.37;1.20;;;;;;;16.46;75.66;96979.16;4970759;28;20139;-80
2023/10/20 07:55:43;;;;;;;5.53;1.10;;;;;;;16.34;75.85;96983.66;4962157;28;20055;-80
2023/10/20 07:58:09;;;;;;;5.63;0.93;;;;;;;16.29;75.98;96993.81;4961104;28;20652;-80
2023/10/20 08:00:34;;;;;;;4.75;1.27;;;;;;;16.20;76.75;96989.22;4959429;28;20538;-80
2023/10/20 08:03:00;;;;;;;9.07;1.10;;;;;;;16.15;76.37;96986.09;4968128;28;20479;-80
2023/10/20 08:05:25;;;;;;;8.13;1.33;;;;;;;16.07;76.60;96981.38;4967782;28;20061;-80
2023/10/20 08:07:50;;;;;;;5.00;1.40;;;;;;;16.00;76.99;96985.50;4967358;28;20095;-81
2023/10/20 08:10:16;;;;;;;4.63;0.90;;;;;;;15.99;77.21;96983.81;4985461;28;20512;-80
2023/10/20 08:12:41;;;;;;;7.97;1.25;;;;;;;16.20;77.15;96983.91;4972262;28;20027;-80
2023/10/20 08:15:08;;;;;;;5.13;0.90;;;;;;;16.40;77.11;96978.81;4974346;28;20042;-80
2023/10/20 08:17:34;;;;;;;3.55;1.13;;;;;;;16.57;76.49;96975.63;4969880;28;20035;-81
2023/10/20 08:19:59;;;;;;;4.67;1.00;;;;;;;16.64;75.93;96971.50;4971725;28;20632;-80
2023/10/20 08:22:24;;;;;;;4.50;0.90;;;;;;;16.67;75.70;96972.19;4960103;28;20555;-80
2023/10/20 08:24:51;;;;;;;4.50;1.05;;;;;;;16.71;75.99;96963.00;4958560;28;20142;-81
2023/10/20 08:27:18;;;;;;;5.27;1.00;;;;;;;16.76;75.71;96968.81;4966883;28;20041;-81
2023/10/20 08:29:48;;;;;;;3.45;0.88;;;;;;;16.72;75.85;96972.66;4969885;28;20042;-80
2023/10/20 08:32:13;;;;;;;3.67;0.80;;;;;;;16.73;75.85;96963.72;4969886;28;20419;-80
2023/10/20 08:34:38;;;;;;;5.00;1.03;;;;;;;16.75;76.08;96973.25;4968650;28;20038;-81
2023/10/20 08:37:04;;;;;;;3.90;0.97;;;;;;;16.81;76.05;96977.22;4969819;28;20073;-81
2023/10/20 08:39:30;;;;;;;3.25;0.90;;;;;;;16.74;76.13;96982.19;4969268;28;20523;-81
2023/10/20 08:41:56;;;;;;;6.53;0.87;;;;;;;16.77;75.92;96976.63;4969999;28;20117;-81
2023/10/20 08:44:22;;;;;;;5.13;0.73;;;;;;;16.82;75.83;96983.38;4976880;28;20109;-81
2023/10/20 08:46:49;;;;;;;4.60;0.90;;;;;;;16.85;76.19;96985.78;4989220;28;20479;-81
2023/10/20 08:49:18;;;;;;;7.17;0.70;;;;;;;16.94;75.61;96993.84;4988805;28;20031;-80
2023/10/20 08:51:47;;;;;;;4.25;0.90;;;;;;;17.13;75.76;96991.50;4989398;28;20031;-80
2023/10/20 08:54:13;;;;;;;7.05;1.15;;;;;;;17.29;75.31;97001.69;4963786;28;20034;-81
2023/10/20 08:56:40;;;;;;;5.80;1.00;;;;;;;17.52;74.82;96993.59;4969918;28;20034;-80
2023/10/20 08:59:06;;;;;;;6.90;1.02;;;;;;;17.68;74.38;97001.91;4969608;28;20027;-80
2023/10/20 09:01:32;;;;;;;5.47;1.10;;;;;;;17.81;74.14;96998.22;4969786;28;20513;-81
2023/10/20 09:03:59;;;;;;;4.90;0.90;;;;;;;17.99;73.83;97001.09;4965436;28;20105;-81
2023/10/20 09:06:26;;;;;;;5.38;1.10;;;;;;;18.12;73.64;97004.41;4968299;28;20043;-81
2023/10/20 09:08:52;;;;;;;6.27;1.00;;;;;;;18.19;72.38;97012.66;4970136;28;20400;-81
2023/10/20 09:11:19;;;;;;;3.58;0.75;;;;;;;18.28;72.08;97011.03;4964196;28;20662;-80
2023/10/20 09:13:46;;;;;;;4.53;0.60;;;;;;;18.37;70.69;97012.91;4965640;28;20035;-81
2023/10/20 09:16:13;;;;;;;3.53;0.60;;;;;;;18.40;71.20;97025.06;4952229;28;20499;-81
2023/10/20 09:18:44;;;;;;;2.85;0.40;;;;;;;18.35;70.21;97015.69;4968811;28;20058;-80
2023/10/20 09:21:13;;;;;;;3.70;0.50;;;;;;;18.33;69.92;97022.97;4969358;28;20049;-81
2023/10/20 09:23:39;;;;;;;4.68;0.65;;;;;;;18.32;69.50;97028.41;4969711;28;20031;-81
2023/10/20 09:26:04;;;;;;;3.13;0.40;;;;;;;18.31;69.45;97030.25;4968851;28;20034;-81
2023/10/20 09:28:30;;;;;;;5.83;0.50;;;;;;;18.38;69.69;97027.91;4967993;28;20487;-81
2023/10/20 09:30:56;;;;;;;5.53;0.60;;;;;;;18.51;70.04;97047.13;4967601;28;20038;-81
2023/10/20 09:33:23;;;;;;;3.60;0.30;;;;;;;18.70;69.73;97055.31;4967886;28;20116;-81
2023/10/20 09:35:50;;;;;;;4.45;0.60;;;;;;;18.93;69.33;97048.78;4967516;28;20051;-81
2023/10/20 09:38:25;;;;;;;3.55;0.40;;;;;;;19.06;67.77;97056.53;4940166;29;20041;-81
2023/10/20 09:41:06;;;;;;;4.00;0.50;;;;;;;19.10;67.14;97069.59;4966144;28;20034;-81
2023/10/20 09:43:35;;;;;;;2.97;0.52;;;;;;;19.05;67.20;97065.50;4967691;28;20045;-81
2023/10/20 09:46:19;;;;;;;4.27;0.30;;;;;;;18.87;64.69;97077.81;4988546;28;20114;-82
2023/10/20 09:48:47;;;;;;;2.55;0.30;;;;;;;18.81;65.37;97079.19;4988470;28;20180;-81
2023/10/20 09:51:15;;;;;;;3.50;0.40;;;;;;;18.70;66.29;97076.66;4990139;28;20549;-81
2023/10/20 09:53:42;;;;;;;2.53;0.32;;;;;;;18.68;66.71;97083.91;4988587;28;20027;-81
2023/10/20 09:56:08;;;;;;;2.95;0.30;;;;;;;18.64;67.33;97075.38;4972584;28;20085;-81
2023/10/20 09:58:36;;;;;;;2.50;0.30;;;;;;;18.64;66.47;97065.53;4972529;28;20069;-81
2023/10/20 10:01:03;;;;;;;2.65;0.30;;;;;;;18.60;66.18;97063.28;4972463;28;20031;-80
2023/10/20 10:03:40;;;;;;;2.30;0.30;;;;;;;18.57;66.33;97072.41;4972247;28;20121;-80
2023/10/20 10:06:10;;;;;;;4.28;0.40;;;;;;;18.61;67.25;97071.13;4989402;28;20054;-81
2023/10/20 10:08:46;;;;;;;5.00;0.40;;;;;;;18.61;66.62;97068.47;4972641;28;20039;-81
2023/10/20 10:11:26;;;;;;;2.77;0.30;;;;;;;18.68;66.48;97071.44;4989910;28;20037;-81
2023/10/20 10:14:02;;;;;;;3.53;0.35;;;;;;;18.71;66.85;97073.84;4958864;28;20035;-80
2023/10/20 10:16:28;;;;;;;2.80;0.30;;;;;;;18.79;66.94;97070.47;4991510;28;20109;-80
2023/10/20 10:18:54;;;;;;;2.88;0.40;;;;;;;18.83;66.68;97079.06;4991386;28;20109;-81
2023/10/20 10:21:29;;;;;;;4.78;0.40;;;;;;;18.87;66.05;97081.28;4991510;28;20538;-81
2023/10/20 10:24:05;;;;;;;4.93;0.43;;;;;;;18.87;66.84;97086.63;4991771;28;20025;-81
2023/10/20 10:26:31;;;;;;;4.90;0.60;;;;;;;18.88;66.89;97095.47;4981055;28;20108;-82
2023/10/20 10:28:56;;;;;;;3.37;0.50;;;;;;;18.79;66.65;97097.16;4963322;28;20034;-81
2023/10/20 10:31:33;;;;;;;5.15;0.55;;;;;;;18.76;66.94;97102.75;4961360;28;20033;-81
2023/10/20 10:34:04;;;;;;;3.03;0.40;;;;;;;18.73;67.60;97113.69;4961436;28;20023;-81
2023/10/20 10:36:50;;;;;;;3.35;0.30;;;;;;;18.69;68.01;97117.56;4960241;28;20058;-82
2023/10/20 10:39:29;;;;;;;2.70;0.52;;;;;;;18.70;67.93;97119.28;4943639;28;20130;-82
2023/10/20 10:42:02;;;;;;;3.47;0.57;;;;;;;18.69;67.79;97134.44;4961185;28;20098;-81
2023/10/20 10:44:37;;;;;;;2.55;0.40;;;;;;;18.70;68.33;97140.63;4966125;28;20027;-82
2023/10/20 10:47:04;;;;;;;4.73;0.50;;;;;;;18.73;68.64;97132.34;4948769;28;20391;-81
2023/10/20 10:49:32;;;;;;;2.53;0.30;;;;;;;18.71;67.97;97142.31;4971593;28;20073;-81
2023/10/20 10:52:04;;;;;;;2.30;0.40;;;;;;;18.73;68.37;97129.69;4971566;28;20035;-81
2023/10/20 10:54:33;;;;;;;3.67;0.40;;;;;;;18.71;68.80;97147.63;4972502;28;20496;-80
2023/10/20 10:57:00;;;;;;;5.00;0.40;;;;;;;18.71;68.49;97135.13;4990873;28;20454;-79
2023/10/20 10:59:27;;;;;;;2.40;0.50;;;;;;;18.74;68.58;97131.38;4973094;28;20026;-80
2023/10/20 11:01:52;;;;;;;3.45;0.30;;;;;;;18.81;68.98;97129.84;4973141;28;20027;-81
2023/10/20 11:04:18;;;;;;;4.38;0.57;;;;;;;18.88;69.12;97132.81;4977802;28;20387;-81
2023/10/20 11:06:44;;;;;;;3.00;0.40;;;;;;;18.93;68.63;97135.91;4975134;28;20047;-82
2023/10/20 11:09:10;;;;;;;3.22;0.40;;;;;;;18.95;68.45;97125.94;4968761;28;20038;-82
2023/10/20 11:11:44;;;;;;;3.73;0.67;;;;;;;18.99;68.61;97134.56;4955184;28;20039;-81
2023/10/20 11:14:11;;;;;;;3.90;0.70;;;;;;;19.06;68.30;97130.34;4955070;28;20027;-81
2023/10/20 11:16:36;;;;;;;4.65;0.70;;;;;;;19.10;68.66;97134.41;4970440;28;20065;-80
2023/10/20 11:19:02;;;;;;;6.00;0.80;;;;;;;19.18;68.43;97134.59;4980205;28;20058;-81
2023/10/20 11:21:28;;;;;;;4.68;0.70;;;;;;;19.27;68.49;97126.72;4984594;28;20030;-81
2023/10/20 11:23:56;;;;;;;5.05;0.60;;;;;;;19.36;68.59;97133.88;4967727;28;20034;-81
2023/10/20 11:26:24;;;;;;;3.90;0.50;;;;;;;19.43;67.61;97116.34;4967530;28;20035;-83
2023/10/20 11:28:50;;;;;;;2.47;0.30;;;;;;;19.43;63.56;97119.03;4966182;28;20026;-79
2023/10/20 11:31:16;;;;;;;3.67;0.40;;;;;;;19.50;63.24;97120.13;4951872;29;20034;-79
2023/10/20 11:33:41;;;;;;;2.70;0.50;;;;;;;19.57;63.96;97128.44;4958698;28;20567;-80
2023/10/20 11:36:07;;;;;;;3.57;0.40;;;;;;;19.62;61.95;97136.00;4962462;28;20512;-80
2023/10/20 11:38:32;;;;;;;2.17;0.40;;;;;;;19.65;62.56;97135.72;4959751;28;20031;-79
2023/10/20 11:40:59;;;;;;;2.45;0.30;;;;;;;19.69;62.99;97146.97;4951714;28;20209;-79
2023/10/20 11:43:25;;;;;;;3.27;0.40;;;;;;;19.69;63.58;97157.63;4958629;28;20567;-80
2023/10/20 11:45:51;;;;;;;2.63;0.30;;;;;;;19.71;62.67;97166.34;4977037;28;20023;-80
2023/10/20 11:48:17;;;;;;;4.30;0.30;;;;;;;19.69;59.95;97161.16;4961010;28;20483;-81
2023/10/20 11:50:43;;;;;;;1.90;0.30;;;;;;;19.74;60.53;97172.25;4961666;28;20022;-81
2023/10/20 11:53:08;;;;;;;3.93;0.30;;;;;;;19.79;58.50;97163.84;4968777;28;20507;-80
2023/10/20 11:55:34;;;;;;;2.90;0.20;;;;;;;19.81;56.67;97161.88;4970905;28;20345;-79